createdAt,value
2023-05-09T00:02:12.369Z,101873.81
2023-05-09T00:04:39.716Z,101888.69
2023-05-09T00:07:10.827Z,101884.16
2023-05-09T00:09:37.900Z,101879.72
2023-05-09T00:12:05.123Z,101872.75
2023-05-09T00:14:33.899Z,101866.56
2023-05-09T00:17:00.941Z,101854.28
2023-05-09T00:19:28.030Z,101838.47
2023-05-09T00:21:54.980Z,101819.88
2023-05-09T00:24:22.043Z,101811.81
2023-05-09T00:26:49.188Z,101814.63
2023-05-09T00:29:16.297Z,101812.00
2023-05-09T00:31:43.362Z,101810.22
2023-05-09T00:34:10.468Z,101818.91
2023-05-09T00:36:38.612Z,101820.59
2023-05-09T00:39:06.284Z,101818.81
2023-05-09T00:41:33.729Z,101813.50
2023-05-09T00:44:00.799Z,101823.06
2023-05-09T00:46:28.388Z,101818.69
2023-05-09T00:48:56.420Z,101815.16
2023-05-09T00:51:23.875Z,101815.19
2023-05-09T00:53:50.912Z,101816.72
2023-05-09T00:56:18.200Z,101826.38
2023-05-09T00:58:45.578Z,101816.44
2023-05-09T01:01:12.768Z,101827.13
2023-05-09T01:03:41.507Z,101816.59
2023-05-09T01:06:25.144Z,101811.28
2023-05-09T01:08:57.253Z,101812.13
2023-05-09T01:11:44.722Z,101804.22
2023-05-09T01:14:31.792Z,101808.63
2023-05-09T01:17:11.061Z,101803.38
2023-05-09T01:19:48.012Z,101797.28
2023-05-09T01:22:17.300Z,101799.94
2023-05-09T01:25:03.814Z,101801.78
2023-05-09T01:27:48.854Z,101806.31
2023-05-09T01:30:17.256Z,101809.72
2023-05-09T01:32:46.840Z,101805.47
2023-05-09T01:35:14.982Z,101799.41
2023-05-09T01:37:43.861Z,101794.22
2023-05-09T01:40:14.434Z,101791.69
2023-05-09T01:42:43.772Z,101798.72
2023-05-09T01:45:11.257Z,101797.91
2023-05-09T01:47:40.381Z,101802.44
2023-05-09T01:50:09.650Z,101799.03
2023-05-09T01:52:37.966Z,101798.19
2023-05-09T01:55:06.884Z,101790.44
2023-05-09T01:57:39.647Z,101777.34
2023-05-09T02:00:13.639Z,101764.25
2023-05-09T02:02:41.903Z,101759.94
2023-05-09T02:05:11.128Z,101757.19
2023-05-09T02:07:50.816Z,101752.78
2023-05-09T02:10:18.210Z,101753.66
2023-05-09T02:12:45.468Z,101753.59
2023-05-09T02:15:14.363Z,101741.41
2023-05-09T02:17:42.809Z,101743.06
2023-05-09T02:20:13.693Z,101736.16
2023-05-09T02:22:41.490Z,101739.72
2023-05-09T02:25:09.749Z,101739.81
2023-05-09T02:27:38.950Z,101729.28
2023-05-09T02:30:09.131Z,101727.53
2023-05-09T02:32:37.875Z,101721.34
2023-05-09T02:35:06.407Z,101729.28
2023-05-09T02:37:39.051Z,101731.13
2023-05-09T02:40:13.368Z,101731.00
2023-05-09T02:42:41.808Z,101730.97
2023-05-09T02:45:12.347Z,101733.56
2023-05-09T02:47:39.997Z,101725.72
2023-05-09T02:50:07.579Z,101722.06
2023-05-09T02:52:36.791Z,101731.84
2023-05-09T02:55:04.431Z,101733.63
2023-05-09T02:57:34.035Z,101729.28
2023-05-09T03:00:01.265Z,101722.28
2023-05-09T03:02:29.693Z,101716.25
2023-05-09T03:04:57.775Z,101715.38
2023-05-09T03:07:25.094Z,101718.88
2023-05-09T03:09:52.228Z,101717.19
2023-05-09T03:12:19.356Z,101719.88
2023-05-09T03:14:46.461Z,101724.28
2023-05-09T03:17:17.944Z,101705.88
2023-05-09T03:19:45.245Z,101705.03
2023-05-09T03:22:12.293Z,101697.16
2023-05-09T03:24:45.293Z,101692.84
2023-05-09T03:27:12.370Z,101686.72
2023-05-09T03:29:39.388Z,101681.50
2023-05-09T03:32:06.807Z,101674.59
2023-05-09T03:34:37.171Z,101679.72
2023-05-09T03:37:05.281Z,101675.34
2023-05-09T03:39:35.277Z,101680.59
2023-05-09T03:42:02.948Z,101666.59
2023-05-09T03:44:30.170Z,101672.75
2023-05-09T03:46:57.213Z,101671.78
2023-05-09T03:49:25.251Z,101669.22
2023-05-09T03:51:54.386Z,101671.06
2023-05-09T03:54:21.467Z,101671.94
2023-05-09T03:56:50.470Z,101661.44
2023-05-09T03:59:17.891Z,101658.94
2023-05-09T04:01:45.545Z,101640.34
2023-05-09T04:04:13.734Z,101655.38
2023-05-09T04:06:41.524Z,101657.16
2023-05-09T04:09:10.393Z,101653.72
2023-05-09T04:11:41.099Z,101650.25
2023-05-09T04:14:11.482Z,101655.56
2023-05-09T04:16:39.724Z,101649.50
2023-05-09T04:19:07.570Z,101642.56
2023-05-09T04:21:35.857Z,101646.16
2023-05-09T04:24:05.550Z,101633.00
2023-05-09T04:26:39.322Z,101624.28
2023-05-09T04:29:10.374Z,101625.19
2023-05-09T04:31:37.507Z,101612.94
2023-05-09T04:34:06.936Z,101613.81
2023-05-09T04:36:37.009Z,101608.59
2023-05-09T04:39:12.132Z,101620.06
2023-05-09T04:41:44.850Z,101607.91
2023-05-09T04:44:11.972Z,101604.38
2023-05-09T04:46:39.207Z,101611.44
2023-05-09T04:49:06.536Z,101606.19
2023-05-09T04:51:33.972Z,101609.75
2023-05-09T04:54:01.294Z,101610.69
2023-05-09T04:56:33.609Z,101597.53
2023-05-09T04:59:01.684Z,101595.84
2023-05-09T05:01:29.839Z,101595.03
2023-05-09T05:03:58.386Z,101598.59
2023-05-09T05:06:29.738Z,101600.44
2023-05-09T05:08:57.429Z,101596.06
2023-05-09T05:11:24.735Z,101592.53
2023-05-09T05:13:52.007Z,101592.59
2023-05-09T05:16:19.232Z,101588.22
2023-05-09T05:18:47.372Z,101588.22
2023-05-09T05:21:16.645Z,101591.75
2023-05-09T05:23:44.580Z,101588.28
2023-05-09T05:26:11.758Z,101591.78
2023-05-09T05:28:38.785Z,101587.34
2023-05-09T05:31:06.373Z,101586.50
2023-05-09T05:33:33.449Z,101576.00
2023-05-09T05:36:01.514Z,101583.91
2023-05-09T05:38:28.722Z,101582.22
2023-05-09T05:40:57.805Z,101580.47
2023-05-09T05:43:26.620Z,101575.25
2023-05-09T05:45:53.955Z,101573.50
2023-05-09T05:48:24.106Z,101580.63
2023-05-09T05:50:53.063Z,101577.09
2023-05-09T05:53:24.112Z,101573.63
2023-05-09T05:55:51.723Z,101581.47
2023-05-09T05:58:18.972Z,101579.81
2023-05-09T06:00:46.317Z,101574.66
2023-05-09T06:03:14.899Z,101570.28
2023-05-09T06:05:47.641Z,101577.31
2023-05-09T06:08:15.222Z,101568.53
2023-05-09T06:10:42.467Z,101571.19
2023-05-09T06:13:09.624Z,101569.47
2023-05-09T06:15:39.114Z,101565.97
2023-05-09T06:18:06.634Z,101569.59
2023-05-09T06:20:33.778Z,101571.34
2023-05-09T06:23:01.423Z,101571.44
2023-05-09T06:25:28.764Z,101567.00
2023-05-09T06:27:56.310Z,101569.63
2023-05-09T06:30:26.732Z,101569.63
2023-05-09T06:32:54.940Z,101561.78
2023-05-09T06:35:22.476Z,101565.31
2023-05-09T06:37:50.145Z,101564.50
2023-05-09T06:40:17.678Z,101559.34
2023-05-09T06:42:45.153Z,101554.97
2023-05-09T06:45:12.588Z,101548.88
2023-05-09T06:47:39.894Z,101548.91
2023-05-09T06:50:07.440Z,101548.94
2023-05-09T06:52:34.775Z,101549.00
2023-05-09T06:55:02.314Z,101539.31
2023-05-09T06:57:29.734Z,101543.75
2023-05-09T06:59:57.474Z,101543.75
2023-05-09T07:02:24.712Z,101544.66
2023-05-09T07:04:52.065Z,101545.50
2023-05-09T07:07:19.109Z,101546.41
2023-05-09T07:09:46.280Z,101543.81
2023-05-09T07:12:13.660Z,101540.28
2023-05-09T07:14:42.245Z,101543.84
2023-05-09T07:17:21.733Z,101533.38
2023-05-09T07:19:50.637Z,101531.69
2023-05-09T07:22:17.834Z,101530.94
2023-05-09T07:24:46.865Z,101530.91
2023-05-09T07:27:14.140Z,101525.78
2023-05-09T07:29:41.197Z,101524.03
2023-05-09T07:32:08.645Z,101518.81
2023-05-09T07:34:36.444Z,101519.72
2023-05-09T07:37:03.744Z,101515.38
2023-05-09T07:39:30.882Z,101525.09
2023-05-09T07:42:00.266Z,101516.38
2023-05-09T07:44:27.722Z,101519.03
2023-05-09T07:46:56.190Z,101513.69
2023-05-09T07:49:23.671Z,101510.22
2023-05-09T07:51:51.232Z,101519.91
2023-05-09T07:54:18.191Z,101509.34
2023-05-09T07:56:45.509Z,101517.31
2023-05-09T07:59:12.708Z,101518.16
2023-05-09T08:01:40.335Z,101518.22
2023-05-09T08:04:10.439Z,101517.38
2023-05-09T08:06:37.864Z,101523.63
2023-05-09T08:09:05.323Z,101515.72
2023-05-09T08:11:39.087Z,101514.84
2023-05-09T08:14:06.392Z,101520.16
2023-05-09T08:16:33.711Z,101529.81
2023-05-09T08:19:00.943Z,101527.19
2023-05-09T08:21:28.571Z,101528.06
2023-05-09T08:23:56.153Z,101521.09
2023-05-09T08:26:24.269Z,101528.97
2023-05-09T08:28:51.599Z,101532.50
2023-05-09T08:31:18.691Z,101524.56
2023-05-09T08:33:46.459Z,101536.09
2023-05-09T08:36:13.930Z,101542.22
2023-05-09T08:38:46.593Z,101543.97
2023-05-09T08:41:14.078Z,101549.28
2023-05-09T08:43:41.506Z,101552.78
2023-05-09T08:46:10.172Z,101551.03
2023-05-09T08:48:38.480Z,101557.22
2023-05-09T08:51:06.823Z,101552.81
2023-05-09T08:53:34.973Z,101556.34
2023-05-09T08:56:04.256Z,101548.41
2023-05-09T08:58:31.877Z,101549.31
2023-05-09T09:00:59.697Z,101546.69
2023-05-09T09:03:27.561Z,101554.59
2023-05-09T09:05:55.709Z,101564.25
2023-05-09T09:08:23.214Z,101559.88
2023-05-09T09:10:50.314Z,101554.56
2023-05-09T09:13:18.041Z,101539.59
2023-05-09T09:15:45.934Z,101550.19
2023-05-09T09:18:16.522Z,101554.59
2023-05-09T09:20:49.208Z,101564.25
2023-05-09T09:23:21.251Z,101563.41
2023-05-09T09:25:48.710Z,101559.88
2023-05-09T09:28:16.150Z,101559.00
2023-05-09T09:30:49.388Z,101568.66
2023-05-09T09:33:21.494Z,101556.44
2023-05-09T09:35:49.680Z,101566.09
2023-05-09T09:38:23.472Z,101562.59
2023-05-09T09:40:57.528Z,101562.59
2023-05-09T09:43:28.470Z,101558.22
2023-05-09T09:45:56.332Z,101567.06
2023-05-09T09:48:27.584Z,101577.63
2023-05-09T09:50:56.666Z,101580.34
2023-05-09T09:53:24.394Z,101575.97
2023-05-09T09:55:52.638Z,101581.28
2023-05-09T09:58:28.798Z,101584.78
2023-05-09T10:01:09.924Z,101591.00
2023-05-09T10:03:38.070Z,101592.69
2023-05-09T10:06:05.766Z,101592.75
2023-05-09T10:08:33.029Z,101600.69
2023-05-09T10:11:00.740Z,101599.81
2023-05-09T10:13:28.749Z,101609.50
2023-05-09T10:15:58.520Z,101603.34
2023-05-09T10:18:28.976Z,101599.78
2023-05-09T10:20:57.637Z,101599.78
2023-05-09T10:23:25.522Z,101598.03
2023-05-09T10:26:12.370Z,101610.34
2023-05-09T10:28:41.425Z,101598.00
2023-05-09T10:31:29.537Z,101610.34
2023-05-09T10:33:56.786Z,101608.59
2023-05-09T10:36:25.028Z,101617.38
2023-05-09T10:38:56.665Z,101625.34
2023-05-09T10:41:24.373Z,101628.84
2023-05-09T10:43:51.896Z,101640.28
2023-05-09T10:46:19.303Z,101640.28
2023-05-09T10:48:48.473Z,101643.81
2023-05-09T10:51:17.297Z,101652.66
2023-05-09T10:53:46.152Z,101649.19
2023-05-09T10:56:25.918Z,101644.78
2023-05-09T10:58:53.586Z,101649.22
2023-05-09T11:01:35.755Z,101647.50
2023-05-09T11:04:18.008Z,101651.94
2023-05-09T11:06:47.896Z,101640.44
2023-05-09T11:09:28.914Z,101651.94
2023-05-09T11:11:59.473Z,101644.00
2023-05-09T11:14:30.879Z,101651.03
2023-05-09T11:16:59.306Z,101642.25
2023-05-09T11:19:46.039Z,101643.13
2023-05-09T11:22:22.211Z,101643.09
2023-05-09T11:24:50.533Z,101644.00
2023-05-09T11:27:21.449Z,101651.97
2023-05-09T11:29:53.383Z,101646.66
2023-05-09T11:32:23.313Z,101640.47
2023-05-09T11:34:50.679Z,101641.34
2023-05-09T11:37:21.251Z,101643.09
2023-05-09T11:39:58.970Z,101634.31
2023-05-09T11:42:28.254Z,101648.41
2023-05-09T11:44:56.322Z,101653.69
2023-05-09T11:47:23.574Z,101656.34
2023-05-09T11:49:51.062Z,101659.84
2023-05-09T11:52:22.051Z,101665.16
2023-05-09T11:54:50.076Z,101654.53
2023-05-09T11:57:19.885Z,101663.34
2023-05-09T11:59:48.646Z,101653.66
2023-05-09T12:02:16.168Z,101645.72
2023-05-09T12:04:46.037Z,101651.03
2023-05-09T12:07:13.540Z,101651.00
2023-05-09T12:09:42.055Z,101645.56
2023-05-09T12:12:14.433Z,101637.50
2023-05-09T12:14:42.096Z,101637.47
2023-05-09T12:17:10.938Z,101647.94
2023-05-09T12:19:39.454Z,101641.00
2023-05-09T12:22:08.178Z,101640.06
2023-05-09T12:24:36.745Z,101641.75
2023-05-09T12:27:09.198Z,101639.84
2023-05-09T12:29:36.853Z,101645.94
2023-05-09T12:32:04.126Z,101643.25
2023-05-09T12:34:32.243Z,101634.47
2023-05-09T12:37:00.846Z,101637.19
2023-05-09T12:39:29.526Z,101635.56
2023-05-09T12:42:01.650Z,101643.59
2023-05-09T12:44:30.581Z,101647.78
2023-05-09T12:46:57.681Z,101647.59
2023-05-09T12:49:26.087Z,101643.06
2023-05-09T12:51:54.244Z,101643.91
2023-05-09T12:54:30.173Z,101651.88
2023-05-09T12:56:58.837Z,101648.34
2023-05-09T12:59:27.213Z,101654.88
2023-05-09T13:01:55.927Z,101648.47
2023-05-09T13:04:23.432Z,101666.22
2023-05-09T13:06:57.860Z,101674.25
2023-05-09T13:09:27.572Z,101673.28
2023-05-09T13:11:54.831Z,101675.91
2023-05-09T13:14:26.365Z,101666.97
2023-05-09T13:16:54.285Z,101667.81
2023-05-09T13:19:21.846Z,101672.06
2023-05-09T13:21:49.651Z,101662.56
2023-05-09T13:24:17.919Z,101674.06
2023-05-09T13:26:45.522Z,101680.25
2023-05-09T13:29:12.616Z,101666.84
2023-05-09T13:31:39.667Z,101663.41
2023-05-09T13:34:06.578Z,101664.09
2023-05-09T13:36:34.274Z,101664.94
2023-05-09T13:39:02.330Z,101674.56
2023-05-09T13:41:32.330Z,101669.50
2023-05-09T13:43:59.593Z,101676.81
2023-05-09T13:46:27.192Z,101676.72
2023-05-09T13:48:55.535Z,101670.59
2023-05-09T13:51:23.064Z,101676.81
2023-05-09T13:53:50.337Z,101676.00
2023-05-09T13:56:17.298Z,101684.88
2023-05-09T13:58:44.410Z,101679.63
2023-05-09T14:01:11.528Z,101690.25
2023-05-09T14:03:39.229Z,101694.75
2023-05-09T14:06:06.449Z,101689.63
2023-05-09T14:08:36.399Z,101682.50
2023-05-09T14:11:03.878Z,101683.38
2023-05-09T14:13:32.202Z,101686.84
2023-05-09T14:15:59.362Z,101682.44
2023-05-09T14:18:30.271Z,101691.28
2023-05-09T14:20:57.700Z,101689.50
2023-05-09T14:23:24.957Z,101684.22
2023-05-09T14:25:52.252Z,101693.97
2023-05-09T14:28:19.325Z,101691.22
2023-05-09T14:30:47.205Z,101689.34
2023-05-09T14:33:14.959Z,101691.84
2023-05-09T14:35:43.776Z,101690.06
2023-05-09T14:38:12.683Z,101682.19
2023-05-09T14:40:39.735Z,101684.88
2023-05-09T14:43:07.605Z,101672.53
2023-05-09T14:45:34.941Z,101675.22
2023-05-09T14:48:03.743Z,101669.09
2023-05-09T14:50:31.104Z,101672.78
2023-05-09T14:52:58.659Z,101691.34
2023-05-09T14:55:26.901Z,101698.47
2023-05-09T14:57:53.964Z,101701.13
2023-05-09T15:00:22.449Z,101703.78
2023-05-09T15:02:50.153Z,101690.50
2023-05-09T15:05:18.631Z,101680.72
2023-05-09T15:07:45.973Z,101668.38
2023-05-09T15:10:14.578Z,101679.94
2023-05-09T15:12:42.018Z,101681.69
2023-05-09T15:15:16.604Z,101680.81
2023-05-09T15:17:45.206Z,101677.28
2023-05-09T15:20:13.198Z,101673.69
2023-05-09T15:22:40.851Z,101662.25
2023-05-09T15:25:08.153Z,101657.88
2023-05-09T15:27:35.986Z,101662.31
2023-05-09T15:30:03.439Z,101666.78
2023-05-09T15:32:32.011Z,101683.63
2023-05-09T15:34:59.516Z,101681.94
2023-05-09T15:37:27.972Z,101687.22
2023-05-09T15:39:55.381Z,101694.28
2023-05-09T15:42:22.678Z,101695.16
2023-05-09T15:44:49.668Z,101693.41
2023-05-09T15:47:16.739Z,101681.00
2023-05-09T15:49:43.905Z,101687.16
2023-05-09T15:52:12.148Z,101679.19
2023-05-09T15:54:40.207Z,101678.31
2023-05-09T15:57:09.334Z,101681.00
2023-05-09T15:59:37.319Z,101678.34
2023-05-09T16:02:04.769Z,101683.66
2023-05-09T16:04:32.780Z,101691.63
2023-05-09T16:07:03.053Z,101683.69
2023-05-09T16:09:30.398Z,101688.97
2023-05-09T16:11:57.619Z,101686.31
2023-05-09T16:14:26.237Z,101681.91
2023-05-09T16:16:55.240Z,101687.22
2023-05-09T16:19:22.693Z,101692.53
2023-05-09T16:21:51.315Z,101689.00
2023-05-09T16:24:19.575Z,101688.13
2023-05-09T16:26:46.804Z,101690.75
2023-05-09T16:29:14.200Z,101699.59
2023-05-09T16:31:41.414Z,101703.13
2023-05-09T16:34:08.481Z,101709.28
2023-05-09T16:36:37.800Z,101711.03
2023-05-09T16:39:06.284Z,101714.56
2023-05-09T16:41:36.584Z,101703.13
2023-05-09T16:44:03.776Z,101706.63
2023-05-09T16:46:30.739Z,101710.16
2023-05-09T16:48:58.888Z,101700.44
2023-05-09T16:51:26.294Z,101708.38
2023-05-09T16:53:53.381Z,101713.69
2023-05-09T16:56:20.604Z,101711.03
2023-05-09T16:58:49.926Z,101711.03
2023-05-09T17:01:17.539Z,101701.34
2023-05-09T17:03:49.309Z,101723.38
2023-05-09T17:06:18.852Z,101720.69
2023-05-09T17:08:46.994Z,101723.31
2023-05-09T17:11:14.413Z,101718.03
2023-05-09T17:13:43.029Z,101719.78
2023-05-09T17:16:10.154Z,101719.75
2023-05-09T17:18:38.202Z,101725.09
2023-05-09T17:21:06.037Z,101729.41
2023-05-09T17:23:33.416Z,101727.63
2023-05-09T17:26:00.707Z,101721.47
2023-05-09T17:28:27.847Z,101728.50
2023-05-09T17:30:54.911Z,101732.94
2023-05-09T17:33:21.912Z,101735.56
2023-05-09T17:35:50.541Z,101739.09
2023-05-09T17:38:18.217Z,101744.28
2023-05-09T17:40:47.737Z,101750.44
2023-05-09T17:43:15.096Z,101744.25
2023-05-09T17:45:43.017Z,101742.44
2023-05-09T17:48:10.285Z,101746.81
2023-05-09T17:50:37.404Z,101750.31
2023-05-09T17:53:05.046Z,101755.59
2023-05-09T17:55:32.231Z,101751.16
2023-05-09T17:58:06.077Z,101757.31
2023-05-09T18:00:33.458Z,101758.16
2023-05-09T18:03:11.446Z,101751.97
2023-05-09T18:05:40.326Z,101759.00
2023-05-09T18:08:08.308Z,101758.03
2023-05-09T18:10:37.050Z,101754.63
2023-05-09T18:13:04.960Z,101762.44
2023-05-09T18:15:38.554Z,101765.97
2023-05-09T18:18:08.994Z,101766.84
2023-05-09T18:20:36.490Z,101771.22
2023-05-09T18:23:04.171Z,101769.38
2023-05-09T18:25:31.551Z,101772.00
2023-05-09T18:27:58.935Z,101773.75
2023-05-09T18:30:26.199Z,101779.81
2023-05-09T18:32:53.700Z,101781.63
2023-05-09T18:35:20.748Z,101779.66
2023-05-09T18:37:47.795Z,101778.78
2023-05-09T18:40:16.056Z,101778.72
2023-05-09T18:42:43.639Z,101786.44
2023-05-09T18:45:11.836Z,101794.38
2023-05-09T18:47:40.465Z,101781.06
2023-05-09T18:50:09.167Z,101791.59
2023-05-09T18:52:38.732Z,101788.97
2023-05-09T18:55:09.704Z,101790.72
2023-05-09T18:58:09.347Z,101793.31
2023-05-09T19:00:38.796Z,101789.78
2023-05-09T19:03:11.277Z,101799.38
2023-05-09T19:05:40.370Z,101780.66
2023-05-09T19:08:13.026Z,101802.78
2023-05-09T19:10:57.760Z,101810.56
2023-05-09T19:13:55.237Z,101803.41
2023-05-09T19:16:27.507Z,101810.41
2023-05-09T19:18:59.051Z,101809.38
2023-05-09T19:21:26.074Z,101808.50
2023-05-09T19:23:58.806Z,101822.50
2023-05-09T19:26:26.628Z,101817.09
2023-05-09T19:28:54.190Z,101817.94
2023-05-09T19:31:21.345Z,101824.84
2023-05-09T19:33:51.628Z,101826.41
2023-05-09T19:36:18.797Z,101827.19
2023-05-09T19:38:46.627Z,101830.75
2023-05-09T19:41:14.895Z,101837.47
2023-05-09T19:43:42.689Z,101833.16
2023-05-09T19:46:10.223Z,101830.44
2023-05-09T19:48:37.546Z,101836.44
2023-05-09T19:51:04.945Z,101840.78
2023-05-09T19:53:33.503Z,101845.19
2023-05-09T19:56:00.753Z,101854.75
2023-05-09T19:58:28.977Z,101860.78
2023-05-09T20:00:56.242Z,101863.34
2023-05-09T20:03:23.975Z,101865.97
2023-05-09T20:05:57.260Z,101864.19
2023-05-09T20:08:25.773Z,101873.16
2023-05-09T20:10:53.672Z,101878.44
2023-05-09T20:13:21.893Z,101875.75
2023-05-09T20:15:53.515Z,101880.09
2023-05-09T20:18:21.156Z,101880.78
2023-05-09T20:20:55.447Z,101898.38
2023-05-09T20:23:23.157Z,101898.28
2023-05-09T20:25:54.371Z,101872.34
2023-05-09T20:32:16.296Z,101905.84
2023-05-09T20:34:43.874Z,101912.69
2023-05-09T20:37:11.098Z,101912.63
2023-05-09T20:39:38.187Z,101916.94
2023-05-09T20:42:06.743Z,101912.34
2023-05-09T20:44:34.362Z,101919.31
2023-05-09T20:47:01.376Z,101920.94
2023-05-09T20:49:28.590Z,101923.44
2023-05-09T20:51:59.157Z,101925.28
2023-05-09T20:54:26.529Z,101881.56
2023-05-09T20:56:54.110Z,101924.31
2023-05-09T21:03:10.931Z,101933.72
2023-05-09T21:05:38.127Z,101936.31
2023-05-09T21:08:06.069Z,101942.50
2023-05-09T21:10:33.083Z,101938.16
2023-05-09T21:13:00.236Z,101925.88
2023-05-09T21:15:27.274Z,101941.63
2023-05-09T21:17:54.370Z,101939.00
2023-05-09T21:20:21.486Z,101932.88
2023-05-09T21:22:48.556Z,101939.75
2023-05-09T21:25:16.681Z,101932.81
2023-05-09T21:27:43.913Z,101939.69
2023-05-09T21:30:11.117Z,101934.47
2023-05-09T21:32:38.264Z,101941.47
2023-05-09T21:35:11.573Z,101939.66
2023-05-09T21:37:39.243Z,101945.75
2023-05-09T21:40:07.057Z,101941.38
2023-05-09T21:42:36.307Z,101937.06
2023-05-09T21:45:03.956Z,101949.31
2023-05-09T21:47:31.573Z,101938.75
2023-05-09T21:49:59.420Z,101941.38
2023-05-09T21:52:26.725Z,101957.09
2023-05-09T21:54:54.088Z,101949.19
2023-05-09T21:57:21.252Z,101958.00
2023-05-09T21:59:48.302Z,101959.66
2023-05-09T22:02:16.781Z,101955.41
2023-05-09T22:04:44.970Z,101960.53
2023-05-09T22:07:12.613Z,101963.94
2023-05-09T22:09:39.624Z,101963.00
2023-05-09T22:12:06.934Z,101957.69
2023-05-09T22:14:41.946Z,101965.47
2023-05-09T22:17:16.087Z,101967.13
2023-05-09T22:19:43.643Z,101972.22
2023-05-09T22:22:12.216Z,101975.63
2023-05-09T22:24:41.896Z,101968.44
2023-05-09T22:27:09.464Z,101973.78
2023-05-09T22:29:36.852Z,101978.84
2023-05-09T22:32:04.233Z,101980.50
2023-05-09T22:34:31.485Z,101976.84
2023-05-09T22:36:58.504Z,101977.56
2023-05-09T22:39:25.489Z,101991.28
2023-05-09T22:41:52.600Z,101997.28
2023-05-09T22:44:19.628Z,101994.59
2023-05-09T22:46:47.368Z,101987.44
2023-05-09T22:49:14.525Z,101986.53
2023-05-09T22:51:41.917Z,101992.56
2023-05-09T22:54:09.401Z,101983.66
2023-05-09T22:56:36.754Z,101986.19
2023-05-09T22:59:03.791Z,101980.91
2023-05-09T23:01:31.512Z,101980.91
2023-05-09T23:03:59.049Z,101987.09
2023-05-09T23:06:26.800Z,101988.06
2023-05-09T23:08:53.913Z,101979.31
2023-05-09T23:11:22.214Z,101986.34
2023-05-09T23:13:49.549Z,101983.66
2023-05-09T23:16:16.887Z,101986.19
2023-05-09T23:18:44.129Z,101986.16
2023-05-09T23:21:11.379Z,101985.06
2023-05-09T23:23:38.996Z,101984.97
2023-05-09T23:26:06.142Z,101979.53
2023-05-09T23:28:33.301Z,101983.78
2023-05-09T23:31:00.952Z,101983.78
2023-05-09T23:33:28.307Z,101987.16
2023-05-09T23:35:55.575Z,101993.03
2023-05-09T23:38:22.878Z,101997.22
2023-05-09T23:40:50.351Z,101994.50
2023-05-09T23:43:18.670Z,101998.69
2023-05-09T23:45:45.802Z,101995.91
2023-05-09T23:48:12.978Z,101993.97
2023-05-09T23:50:40.091Z,101988.41
2023-05-09T23:53:07.787Z,101987.44
2023-05-09T23:55:35.094Z,101992.66
2023-05-09T23:58:02.952Z,101987.25
